Stations météo

réclame
Mon MeteoGroup
Olmedo, Espagne (8142): Température de l'air & dewpoint: 14.11.2017 01:00:00 - 20.11.2017 01:00:00 (CET)Olmedo, Espagne (8142): Vitesse du vent & gusts: 14.11.2017 01:00:00 - 20.11.2017 01:00:00 (CET)Olmedo, Espagne (8142): Direction du vent: 14.11.2017 01:00:00 - 20.11.2017 01:00:00 (CET)Olmedo, Espagne (8142): Quantités de précipitations: 14.11.2017 01:00:00 - 20.11.2017 01:00:00 (CET)
Date & Time tt [°C] td [°C] ff [km/h] ff [knt] fx [km/h] fx [knt] dd rr [mm]
20.11.2017 01:00:00 - - - - - - - -
20.11.2017 00:00:00 -1,5 -3,2 1 1 4 2 S 0,0
19.11.2017 23:00:00 -0,9 -3,2 3 2 5 3 NE 0,0
19.11.2017 22:00:00 0,2 -2,8 1 1 4 2 S 0,0
19.11.2017 21:00:00 2,0 -1,9 0 0 3 2 WSW 0,0
19.11.2017 20:00:00 4,1 -1,1 0 0 2 1 SE 0,0
19.11.2017 19:00:00 6,4 -0,3 0 0 7 4 ENE -
19.11.2017 18:00:00 10,8 1,6 3 2 9 5 N 0,0
19.11.2017 17:00:00 13,2 3,0 5 3 13 7 NNE 0,0
19.11.2017 16:00:00 15,1 4,5 5 3 13 7 N 0,0
19.11.2017 15:00:00 15,4 4,5 4 2 12 7 WSW 0,0
19.11.2017 14:00:00 14,7 5,5 2 1 12 6 NE 0,0
19.11.2017 13:00:00 10,6 4,1 4 2 8 4 SSW -
19.11.2017 12:00:00 8,8 3,4 3 1 8 5 ENE 0,0
19.11.2017 11:00:00 5,5 1,8 1 1 5 3 S 0,0
19.11.2017 10:00:00 1,7 -0,1 2 1 6 4 ESE 0,0
19.11.2017 09:00:00 -3,3 -3,6 1 1 4 2 E 0,0
19.11.2017 08:00:00 -4,9 -5,2 3 1 4 2 NNE 0,0
19.11.2017 07:00:00 -3,5 -3,8 1 1 5 3 E -
19.11.2017 06:00:00 -4,0 -4,4 0 0 4 2 NNE 0,0
19.11.2017 05:00:00 -3,8 -4,3 3 2 5 3 NNE 0,0
19.11.2017 04:00:00 -3,7 -4,5 3 1 4 2 NE 0,0
19.11.2017 03:00:00 -3,0 -3,8 1 0 3 2 NE 0,0
19.11.2017 02:00:00 -2,7 -3,7 0 0 5 3 E 0,0
19.11.2017 01:00:00 -1,5 -2,8 0 0 3 1 E -
19.11.2017 00:00:00 0,1 -1,5 1 0 6 3 NE 0,0
18.11.2017 23:00:00 1,6 -0,6 2 1 4 2 NE 0,0
18.11.2017 22:00:00 2,5 -0,9 3 2 10 6 NE 0,0
18.11.2017 21:00:00 4,3 -1,3 3 2 6 4 NNE 0,0
18.11.2017 20:00:00 6,4 -1,2 4 2 10 5 NNE 0,0
18.11.2017 19:00:00 8,9 -0,1 3 2 14 7 ENE -
18.11.2017 18:00:00 13,1 2,1 6 3 15 8 N 0,0
18.11.2017 17:00:00 15,7 3,8 8 4 15 8 N 0,0
18.11.2017 16:00:00 18,0 5,3 5 3 13 7 NE 0,0
18.11.2017 15:00:00 16,3 4,7 6 3 15 8 N 0,0
18.11.2017 14:00:00 16,0 5,0 3 2 12 6 NE 0,0
18.11.2017 13:00:00 14,1 4,1 3 2 10 6 NNE -
18.11.2017 12:00:00 11,4 4,2 2 1 11 6 ENE 0,0
18.11.2017 11:00:00 7,4 2,5 4 2 12 6 NNE 0,0
18.11.2017 10:00:00 4,7 1,9 2 1 5 3 NE 0,0
18.11.2017 09:00:00 -0,7 -1,4 3 2 8 4 NNE 0,0
18.11.2017 08:00:00 -3,0 -4,0 1 0 3 2 NE 0,0
18.11.2017 07:00:00 -2,9 -3,9 2 1 5 3 ENE -
18.11.2017 06:00:00 -2,5 -3,6 0 0 1 1 ESE 0,0
18.11.2017 05:00:00 -2,2 -3,6 1 1 5 3 NE 0,0
18.11.2017 04:00:00 -1,5 -3,2 0 0 3 2 SSE 0,0
18.11.2017 03:00:00 -0,5 -2,5 0 0 4 2 NE 0,0
18.11.2017 02:00:00 0,5 -1,9 1 1 4 2 SE 0,0
18.11.2017 01:00:00 0,8 -2,1 1 1 4 2 NE -
18.11.2017 00:00:00 2,5 -0,6 4 2 6 4 SW 0,0
17.11.2017 23:00:00 2,7 -1,3 1 0 4 2 SSE 0,0
17.11.2017 22:00:00 4,1 -1,1 1 0 5 3 SW 0,0
17.11.2017 21:00:00 5,0 -1,0 0 0 4 2 E 0,0
17.11.2017 20:00:00 7,1 -0,1 0 0 3 2 SSE 0,0
17.11.2017 19:00:00 9,6 0,0 1 0 3 2 S -
17.11.2017 18:00:00 12,5 1,2 1 1 5 3 SSE 0,0
17.11.2017 17:00:00 15,1 2,3 3 2 10 5 NNE 0,0
17.11.2017 16:00:00 17,1 3,4 4 2 10 6 NNE 0,0
17.11.2017 15:00:00 15,8 2,9 7 4 11 6 NNE 0,0
17.11.2017 14:00:00 15,3 3,5 3 1 10 5 NE 0,0
17.11.2017 13:00:00 13,3 3,4 1 1 9 5 SSW -
17.11.2017 12:00:00 9,9 2,3 4 2 7 4 SSW 0,0
17.11.2017 11:00:00 7,8 1,7 3 2 5 3 SSW 0,0
17.11.2017 10:00:00 5,2 1,1 1 1 5 3 ESE 0,0
17.11.2017 09:00:00 -0,7 -1,8 1 1 6 3 NNE 0,0
17.11.2017 08:00:00 -3,1 -4,4 0 0 4 2 NE 0,0
17.11.2017 07:00:00 -2,7 -4,0 0 0 4 2 NNE -
17.11.2017 06:00:00 -2,5 -3,9 3 2 5 3 NNE 0,0
17.11.2017 05:00:00 -2,1 -3,8 0 0 5 3 NNE 0,0
17.11.2017 04:00:00 -2,0 -4,0 1 1 4 2 NE 0,0
17.11.2017 03:00:00 -1,3 -3,6 0 0 5 3 NNE 0,0
17.11.2017 02:00:00 -0,9 -3,7 0 0 4 2 E 0,0
17.11.2017 01:00:00 - - 1 1 4 2 NE -
17.11.2017 00:00:00 1,1 -3,4 1 1 8 4 NE 0,0
16.11.2017 23:00:00 3,4 -1,5 2 1 5 3 S 0,0
16.11.2017 22:00:00 4,4 -1,4 0 0 4 2 S 0,0
16.11.2017 21:00:00 5,0 -1,4 0 0 4 2 ENE 0,0
16.11.2017 20:00:00 6,7 -1,4 0 0 4 2 ESE 0,0
16.11.2017 19:00:00 8,6 -1,8 2 1 8 4 E -
16.11.2017 18:00:00 13,0 0,1 3 1 8 4 NNE 0,0
16.11.2017 17:00:00 15,8 0,8 5 3 11 6 NNE 0,0
16.11.2017 16:00:00 17,4 2,2 5 3 11 6 NNE 0,0
16.11.2017 15:00:00 16,5 2,2 5 3 10 5 NNE 0,0
16.11.2017 14:00:00 16,0 3,5 2 1 9 5 E 0,0
16.11.2017 13:00:00 12,8 2,7 5 3 7 4 SW -
16.11.2017 12:00:00 11,3 2,9 1 0 6 3 E 0,0
16.11.2017 11:00:00 6,9 1,8 2 1 5 3 SSW 0,0
16.11.2017 10:00:00 2,9 0,1 2 1 6 3 NE 0,0
16.11.2017 09:00:00 -2,4 -3,1 2 1 4 2 NNE 0,0
16.11.2017 08:00:00 -4,6 -5,4 1 0 4 2 NNE 0,0
16.11.2017 07:00:00 -4,2 -5,2 0 0 5 3 SSW -
16.11.2017 06:00:00 -3,7 -4,7 0 0 3 2 ENE 0,0
16.11.2017 05:00:00 -3,0 -4,1 1 1 4 2 NE 0,0
16.11.2017 04:00:00 -2,7 -4,0 2 1 5 3 NNE 0,0
16.11.2017 03:00:00 -2,4 -3,8 0 0 4 2 NNE 0,0
16.11.2017 02:00:00 -2,4 -4,1 1 0 4 2 NE 0,0
16.11.2017 01:00:00 -2,0 -4,0 1 1 3 2 NNE -
16.11.2017 00:00:00 -1,5 -4,2 2 1 4 2 NNE 0,0
15.11.2017 23:00:00 -0,5 -3,7 3 1 5 3 NNE 0,0
15.11.2017 22:00:00 0,1 -4,0 1 0 3 2 NE 0,0
15.11.2017 21:00:00 1,7 -3,4 1 0 3 2 NE 0,0
15.11.2017 20:00:00 3,8 -2,6 0 0 4 2 SSE 0,0
15.11.2017 19:00:00 5,5 -2,1 1 1 8 5 E -
15.11.2017 18:00:00 9,4 -0,5 1 1 9 5 E 0,0
15.11.2017 17:00:00 11,8 0,6 0 0 9 5 ESE 0,0
15.11.2017 16:00:00 12,0 0,8 4 2 10 6 SW 0,0
15.11.2017 15:00:00 11,4 0,5 5 3 10 6 SSW 0,0
15.11.2017 14:00:00 11,1 0,2 6 3 11 6 SW 0,0
15.11.2017 13:00:00 8,8 0,3 4 2 10 5 SSW -
15.11.2017 12:00:00 6,6 0,1 4 2 9 5 SSW 0,0
15.11.2017 11:00:00 4,3 -0,9 4 2 7 4 S 0,0
15.11.2017 10:00:00 1,7 -1,7 4 2 8 4 SSW 0,0
15.11.2017 09:00:00 -0,9 -2,3 4 2 8 5 S 0,0
15.11.2017 08:00:00 -3,8 -4,9 2 1 10 5 SSE 0,0
15.11.2017 07:00:00 -4,1 -5,5 0 0 4 2 ENE -
15.11.2017 06:00:00 -3,4 -4,8 3 2 7 4 NE 0,0
15.11.2017 05:00:00 -2,6 -4,3 0 0 5 3 SSW 0,0
15.11.2017 04:00:00 -2,8 -4,6 1 1 6 3 E 0,0
15.11.2017 03:00:00 -2,4 -4,7 2 1 5 3 NNE 0,0
15.11.2017 02:00:00 -1,8 -4,6 2 1 8 4 NE 0,0
15.11.2017 01:00:00 -1,4 -4,7 4 2 7 4 NNE -
15.11.2017 00:00:00 -0,4 -4,3 1 1 4 2 ENE 0,0
14.11.2017 23:00:00 0,6 -4,4 1 1 12 6 E 0,0
14.11.2017 22:00:00 1,7 -3,9 3 1 6 3 N 0,0
14.11.2017 21:00:00 2,9 -4,1 3 1 6 3 NE 0,0
14.11.2017 20:00:00 5,0 -3,3 4 2 7 4 NNE 0,0
14.11.2017 19:00:00 6,9 -2,8 5 3 9 5 NNE -
14.11.2017 18:00:00 9,8 -1,2 6 3 18 10 NNE 0,0
14.11.2017 17:00:00 11,5 -0,9 10 5 18 10 N 0,0
14.11.2017 16:00:00 12,8 0,2 9 5 17 9 N 0,0
14.11.2017 15:00:00 12,5 0,9 10 6 18 10 NNE 0,0
14.11.2017 14:00:00 12,9 1,9 6 3 19 10 NE 0,0
14.11.2017 13:00:00 11,1 1,9 8 4 19 10 NNE -
14.11.2017 12:00:00 9,8 2,4 10 6 23 12 ENE 0,0
14.11.2017 11:00:00 8,2 2,9 10 5 21 11 NE 0,0
14.11.2017 10:00:00 5,9 3,1 8 4 14 8 NE 0,0
14.11.2017 09:00:00 1,7 1,6 5 3 8 5 NE 0,0
14.11.2017 08:00:00 -0,7 -0,8 5 3 10 5 NE 0,0
14.11.2017 07:00:00 -0,6 -0,7 3 1 8 4 ESE -
14.11.2017 06:00:00 -0,5 -0,8 3 1 11 6 E 0,0
14.11.2017 05:00:00 -0,6 -1,0 5 3 14 7 NNE 0,0
14.11.2017 04:00:00 -2,2 -2,9 3 1 6 3 E 0,0
14.11.2017 03:00:00 -1,8 -2,8 2 1 5 3 NE 0,0
14.11.2017 02:00:00 -0,5 -1,5 2 1 4 2 NE 0,0
14.11.2017 01:00:00 0,4 -1,0 2 1 8 4 ESE -

tt = Température de l'air
td = dewpoint
ff = Vitesse du vent
fx = gusts
dd = Direction du vent
rr = Quantités de précipitations

stations d'obs. à proximité